sensor_id;sensor_type;location;lat;lon;timestamp;P1;durP1;ratioP1;P2;durP2;ratioP2
42668;SDS011;29384;42.028;21.388;2022-11-12T00:01:43;23.67;;;12.30;;
42668;SDS011;29384;42.028;21.388;2022-11-12T00:04:08;21.17;;;12.98;;
42668;SDS011;29384;42.028;21.388;2022-11-12T00:06:34;28.33;;;14.25;;
42668;SDS011;29384;42.028;21.388;2022-11-12T00:08:59;29.23;;;14.85;;
42668;SDS011;29384;42.028;21.388;2022-11-12T00:11:25;24.73;;;13.57;;
42668;SDS011;29384;42.028;21.388;2022-11-12T00:17:12;16.00;;;10.00;;
42668;SDS011;29384;42.028;21.388;2022-11-12T00:19:37;16.20;;;8.63;;
42668;SDS011;29384;42.028;21.388;2022-11-12T00:22:03;13.25;;;8.38;;
42668;SDS011;29384;42.028;21.388;2022-11-12T00:24:28;16.65;;;8.30;;
42668;SDS011;29384;42.028;21.388;2022-11-12T00:26:54;11.25;;;8.05;;
42668;SDS011;29384;42.028;21.388;2022-11-12T00:29:20;17.48;;;9.82;;
42668;SDS011;29384;42.028;21.388;2022-11-12T00:31:45;15.15;;;9.63;;
42668;SDS011;29384;42.028;21.388;2022-11-12T00:34:10;15.02;;;9.10;;
42668;SDS011;29384;42.028;21.388;2022-11-12T00:36:36;16.45;;;8.73;;
42668;SDS011;29384;42.028;21.388;2022-11-12T00:39:02;18.75;;;10.65;;
42668;SDS011;29384;42.028;21.388;2022-11-12T00:41:28;12.20;;;8.43;;
42668;SDS011;29384;42.028;21.388;2022-11-12T00:47:15;12.55;;;8.25;;
42668;SDS011;29384;42.028;21.388;2022-11-12T00:49:40;17.58;;;9.43;;
42668;SDS011;29384;42.028;21.388;2022-11-12T00:52:06;15.48;;;9.57;;
42668;SDS011;29384;42.028;21.388;2022-11-12T00:54:31;20.08;;;10.55;;
42668;SDS011;29384;42.028;21.388;2022-11-12T00:56:57;15.93;;;9.48;;
42668;SDS011;29384;42.028;21.388;2022-11-12T00:59:22;15.20;;;9.45;;
42668;SDS011;29384;42.028;21.388;2022-11-12T01:01:48;16.40;;;9.45;;
42668;SDS011;29384;42.028;21.388;2022-11-12T01:04:14;23.58;;;11.75;;
42668;SDS011;29384;42.028;21.388;2022-11-12T01:06:39;23.00;;;13.63;;
42668;SDS011;29384;42.028;21.388;2022-11-12T01:09:05;36.25;;;21.05;;
42668;SDS011;29384;42.028;21.388;2022-11-12T01:11:31;45.15;;;28.27;;
42668;SDS011;29384;42.028;21.388;2022-11-12T01:17:18;57.97;;;35.13;;
42668;SDS011;29384;42.028;21.388;2022-11-12T01:19:44;55.22;;;35.95;;
42668;SDS011;29384;42.028;21.388;2022-11-12T01:22:10;63.15;;;38.55;;
42668;SDS011;29384;42.028;21.388;2022-11-12T01:24:36;61.78;;;38.20;;
42668;SDS011;29384;42.028;21.388;2022-11-12T01:27:01;70.10;;;37.17;;
42668;SDS011;29384;42.028;21.388;2022-11-12T01:29:27;59.85;;;38.22;;
42668;SDS011;29384;42.028;21.388;2022-11-12T01:31:52;67.25;;;37.63;;
42668;SDS011;29384;42.028;21.388;2022-11-12T01:34:18;66.57;;;39.10;;
42668;SDS011;29384;42.028;21.388;2022-11-12T01:36:43;66.63;;;38.38;;
42668;SDS011;29384;42.028;21.388;2022-11-12T01:39:09;65.38;;;38.30;;
42668;SDS011;29384;42.028;21.388;2022-11-12T01:41:36;63.63;;;41.22;;
42668;SDS011;29384;42.028;21.388;2022-11-12T01:49:54;65.22;;;36.50;;
42668;SDS011;29384;42.028;21.388;2022-11-12T01:55:00;64.43;;;33.95;;
42668;SDS011;29384;42.028;21.388;2022-11-12T01:57:30;61.92;;;38.15;;
42668;SDS011;29384;42.028;21.388;2022-11-12T02:00:03;70.85;;;39.00;;
42668;SDS011;29384;42.028;21.388;2022-11-12T02:02:32;64.40;;;35.97;;
42668;SDS011;29384;42.028;21.388;2022-11-12T02:04:59;55.53;;;31.20;;
42668;SDS011;29384;42.028;21.388;2022-11-12T02:07:26;44.58;;;27.92;;
42668;SDS011;29384;42.028;21.388;2022-11-12T02:09:53;51.15;;;29.55;;
42668;SDS011;29384;42.028;21.388;2022-11-12T02:12:19;52.38;;;28.23;;
42668;SDS011;29384;42.028;21.388;2022-11-12T02:15:04;47.03;;;29.35;;
42668;SDS011;29384;42.028;21.388;2022-11-12T02:17:30;50.05;;;28.63;;
42668;SDS011;29384;42.028;21.388;2022-11-12T02:19:59;49.17;;;27.90;;
42668;SDS011;29384;42.028;21.388;2022-11-12T02:22:25;48.00;;;28.83;;
42668;SDS011;29384;42.028;21.388;2022-11-12T02:24:51;54.95;;;26.65;;
42668;SDS011;29384;42.028;21.388;2022-11-12T02:27:16;43.92;;;24.83;;
42668;SDS011;29384;42.028;21.388;2022-11-12T02:29:42;48.97;;;27.77;;
42668;SDS011;29384;42.028;21.388;2022-11-12T02:32:11;49.35;;;27.33;;
42668;SDS011;29384;42.028;21.388;2022-11-12T02:34:37;49.40;;;30.33;;
42668;SDS011;29384;42.028;21.388;2022-11-12T02:37:04;57.10;;;31.35;;
42668;SDS011;29384;42.028;21.388;2022-11-12T02:39:29;54.85;;;29.30;;
42668;SDS011;29384;42.028;21.388;2022-11-12T02:41:55;49.00;;;26.88;;
42668;SDS011;29384;42.028;21.388;2022-11-12T02:47:42;48.53;;;27.02;;
42668;SDS011;29384;42.028;21.388;2022-11-12T02:50:08;42.15;;;24.20;;
42668;SDS011;29384;42.028;21.388;2022-11-12T02:52:33;38.78;;;23.48;;
42668;SDS011;29384;42.028;21.388;2022-11-12T02:54:59;39.60;;;21.48;;
42668;SDS011;29384;42.028;21.388;2022-11-12T02:57:24;42.45;;;23.35;;
42668;SDS011;29384;42.028;21.388;2022-11-12T02:59:50;36.25;;;22.13;;
42668;SDS011;29384;42.028;21.388;2022-11-12T03:02:16;42.60;;;22.77;;
42668;SDS011;29384;42.028;21.388;2022-11-12T03:04:41;42.05;;;24.38;;
42668;SDS011;29384;42.028;21.388;2022-11-12T03:07:06;36.28;;;23.65;;
42668;SDS011;29384;42.028;21.388;2022-11-12T03:09:32;45.10;;;21.15;;
42668;SDS011;29384;42.028;21.388;2022-11-12T03:11:58;39.50;;;22.67;;
42668;SDS011;29384;42.028;21.388;2022-11-12T03:17:45;36.85;;;22.15;;
42668;SDS011;29384;42.028;21.388;2022-11-12T03:20:11;37.30;;;21.77;;
42668;SDS011;29384;42.028;21.388;2022-11-12T03:22:37;34.70;;;20.55;;
42668;SDS011;29384;42.028;21.388;2022-11-12T03:25:04;32.70;;;18.60;;
42668;SDS011;29384;42.028;21.388;2022-11-12T03:27:30;29.33;;;17.85;;
42668;SDS011;29384;42.028;21.388;2022-11-12T03:29:56;35.65;;;19.33;;
42668;SDS011;29384;42.028;21.388;2022-11-12T03:32:22;33.65;;;18.17;;
42668;SDS011;29384;42.028;21.388;2022-11-12T03:34:47;29.83;;;17.17;;
42668;SDS011;29384;42.028;21.388;2022-11-12T03:37:13;30.20;;;17.20;;
42668;SDS011;29384;42.028;21.388;2022-11-12T03:39:38;29.35;;;17.77;;
42668;SDS011;29384;42.028;21.388;2022-11-12T03:42:04;29.73;;;16.27;;
42668;SDS011;29384;42.028;21.388;2022-11-12T03:47:52;26.85;;;15.90;;
42668;SDS011;29384;42.028;21.388;2022-11-12T03:50:20;27.77;;;15.40;;
42668;SDS011;29384;42.028;21.388;2022-11-12T03:52:48;34.53;;;16.08;;
42668;SDS011;29384;42.028;21.388;2022-11-12T03:55:15;22.02;;;13.38;;
42668;SDS011;29384;42.028;21.388;2022-11-12T03:57:42;21.85;;;13.43;;
42668;SDS011;29384;42.028;21.388;2022-11-12T04:00:09;20.70;;;14.20;;
42668;SDS011;29384;42.028;21.388;2022-11-12T04:02:36;21.25;;;13.32;;
42668;SDS011;29384;42.028;21.388;2022-11-12T04:05:03;24.13;;;14.07;;
42668;SDS011;29384;42.028;21.388;2022-11-12T04:07:49;27.80;;;13.63;;
42668;SDS011;29384;42.028;21.388;2022-11-12T04:10:39;23.08;;;13.65;;
42668;SDS011;29384;42.028;21.388;2022-11-12T04:13:04;22.38;;;13.95;;
42668;SDS011;29384;42.028;21.388;2022-11-12T04:15:48;31.90;;;17.05;;
42668;SDS011;29384;42.028;21.388;2022-11-12T04:18:34;35.90;;;16.00;;
42668;SDS011;29384;42.028;21.388;2022-11-12T04:21:18;22.98;;;15.25;;
42668;SDS011;29384;42.028;21.388;2022-11-12T04:24:01;28.67;;;14.65;;
42668;SDS011;29384;42.028;21.388;2022-11-12T04:26:27;30.25;;;16.02;;
42668;SDS011;29384;42.028;21.388;2022-11-12T04:28:52;34.65;;;19.05;;
42668;SDS011;29384;42.028;21.388;2022-11-12T04:31:37;30.48;;;18.42;;
42668;SDS011;29384;42.028;21.388;2022-11-12T04:34:02;37.88;;;18.10;;
42668;SDS011;29384;42.028;21.388;2022-11-12T04:36:46;30.95;;;17.67;;
42668;SDS011;29384;42.028;21.388;2022-11-12T04:39:11;36.38;;;18.55;;
42668;SDS011;29384;42.028;21.388;2022-11-12T04:41:37;26.67;;;16.27;;
42668;SDS011;29384;42.028;21.388;2022-11-12T04:44:21;27.55;;;17.15;;
42668;SDS011;29384;42.028;21.388;2022-11-12T04:47:05;25.95;;;16.75;;
42668;SDS011;29384;42.028;21.388;2022-11-12T04:49:30;32.97;;;18.92;;
42668;SDS011;29384;42.028;21.388;2022-11-12T04:51:56;28.67;;;17.35;;
42668;SDS011;29384;42.028;21.388;2022-11-12T04:54:30;36.15;;;18.75;;
42668;SDS011;29384;42.028;21.388;2022-11-12T04:56:56;32.35;;;18.83;;
42668;SDS011;29384;42.028;21.388;2022-11-12T04:59:22;37.70;;;20.20;;
42668;SDS011;29384;42.028;21.388;2022-11-12T05:01:47;31.00;;;18.60;;
42668;SDS011;29384;42.028;21.388;2022-11-12T05:04:12;33.75;;;21.17;;
42668;SDS011;29384;42.028;21.388;2022-11-12T05:06:38;35.28;;;19.92;;
42668;SDS011;29384;42.028;21.388;2022-11-12T05:09:16;32.50;;;18.98;;
42668;SDS011;29384;42.028;21.388;2022-11-12T05:11:43;30.55;;;18.17;;
42668;SDS011;29384;42.028;21.388;2022-11-12T05:14:08;35.35;;;19.38;;
42668;SDS011;29384;42.028;21.388;2022-11-12T05:16:34;34.25;;;19.48;;
42668;SDS011;29384;42.028;21.388;2022-11-12T05:19:00;37.45;;;19.25;;
42668;SDS011;29384;42.028;21.388;2022-11-12T05:21:25;35.53;;;19.90;;
42668;SDS011;29384;42.028;21.388;2022-11-12T05:24:09;37.53;;;20.85;;
42668;SDS011;29384;42.028;21.388;2022-11-12T05:26:35;30.75;;;19.23;;
42668;SDS011;29384;42.028;21.388;2022-11-12T05:29:00;37.08;;;19.45;;
42668;SDS011;29384;42.028;21.388;2022-11-12T05:31:26;35.05;;;17.80;;
42668;SDS011;29384;42.028;21.388;2022-11-12T05:33:52;29.17;;;17.13;;
42668;SDS011;29384;42.028;21.388;2022-11-12T05:36:17;33.60;;;18.73;;
42668;SDS011;29384;42.028;21.388;2022-11-12T05:38:43;38.45;;;21.63;;
42668;SDS011;29384;42.028;21.388;2022-11-12T05:41:08;33.47;;;20.17;;
42668;SDS011;29384;42.028;21.388;2022-11-12T05:43:34;54.47;;;22.38;;
42668;SDS011;29384;42.028;21.388;2022-11-12T05:45:59;35.00;;;20.63;;
42668;SDS011;29384;42.028;21.388;2022-11-12T05:48:25;43.00;;;21.83;;
42668;SDS011;29384;42.028;21.388;2022-11-12T05:50:51;36.35;;;20.75;;
42668;SDS011;29384;42.028;21.388;2022-11-12T05:53:17;34.78;;;20.23;;
42668;SDS011;29384;42.028;21.388;2022-11-12T05:55:42;41.78;;;20.92;;
42668;SDS011;29384;42.028;21.388;2022-11-12T05:58:08;28.95;;;18.27;;
42668;SDS011;29384;42.028;21.388;2022-11-12T06:00:33;33.80;;;20.27;;
42668;SDS011;29384;42.028;21.388;2022-11-12T06:03:03;34.65;;;19.55;;
42668;SDS011;29384;42.028;21.388;2022-11-12T06:05:30;33.97;;;19.05;;
42668;SDS011;29384;42.028;21.388;2022-11-12T06:07:57;34.53;;;19.75;;
42668;SDS011;29384;42.028;21.388;2022-11-12T06:10:22;30.17;;;16.80;;
42668;SDS011;29384;42.028;21.388;2022-11-12T06:12:48;35.83;;;18.15;;
42668;SDS011;29384;42.028;21.388;2022-11-12T06:15:14;27.42;;;16.58;;
42668;SDS011;29384;42.028;21.388;2022-11-12T06:17:39;30.55;;;17.85;;
42668;SDS011;29384;42.028;21.388;2022-11-12T06:20:06;40.55;;;21.27;;
42668;SDS011;29384;42.028;21.388;2022-11-12T06:22:32;36.85;;;20.15;;
42668;SDS011;29384;42.028;21.388;2022-11-12T06:24:58;33.60;;;17.50;;
42668;SDS011;29384;42.028;21.388;2022-11-12T06:27:23;40.47;;;19.67;;
42668;SDS011;29384;42.028;21.388;2022-11-12T06:33:10;38.33;;;19.27;;
42668;SDS011;29384;42.028;21.388;2022-11-12T06:35:36;38.65;;;20.67;;
42668;SDS011;29384;42.028;21.388;2022-11-12T06:38:01;39.05;;;22.05;;
42668;SDS011;29384;42.028;21.388;2022-11-12T06:40:27;41.42;;;20.63;;
42668;SDS011;29384;42.028;21.388;2022-11-12T06:42:56;38.38;;;20.17;;
42668;SDS011;29384;42.028;21.388;2022-11-12T06:45:22;44.60;;;20.23;;
42668;SDS011;29384;42.028;21.388;2022-11-12T06:47:48;40.55;;;20.83;;
42668;SDS011;29384;42.028;21.388;2022-11-12T06:50:13;38.08;;;19.92;;
42668;SDS011;29384;42.028;21.388;2022-11-12T06:52:39;35.35;;;19.92;;
42668;SDS011;29384;42.028;21.388;2022-11-12T06:55:04;36.35;;;18.70;;
42668;SDS011;29384;42.028;21.388;2022-11-12T06:57:32;31.95;;;18.90;;
42668;SDS011;29384;42.028;21.388;2022-11-12T07:03:34;33.97;;;19.30;;
42668;SDS011;29384;42.028;21.388;2022-11-12T07:06:04;38.00;;;19.38;;
42668;SDS011;29384;42.028;21.388;2022-11-12T07:08:31;32.90;;;20.10;;
42668;SDS011;29384;42.028;21.388;2022-11-12T07:10:56;30.73;;;18.65;;
42668;SDS011;29384;42.028;21.388;2022-11-12T07:13:22;35.50;;;19.35;;
42668;SDS011;29384;42.028;21.388;2022-11-12T07:15:48;34.08;;;20.52;;
42668;SDS011;29384;42.028;21.388;2022-11-12T07:18:13;35.58;;;18.80;;
42668;SDS011;29384;42.028;21.388;2022-11-12T07:20:39;32.15;;;18.90;;
42668;SDS011;29384;42.028;21.388;2022-11-12T07:23:04;31.52;;;17.58;;
42668;SDS011;29384;42.028;21.388;2022-11-12T07:25:30;30.80;;;18.25;;
42668;SDS011;29384;42.028;21.388;2022-11-12T07:27:55;31.73;;;18.02;;
42668;SDS011;29384;42.028;21.388;2022-11-12T07:30:21;35.25;;;18.88;;
42668;SDS011;29384;42.028;21.388;2022-11-12T07:32:46;28.80;;;16.60;;
42668;SDS011;29384;42.028;21.388;2022-11-12T07:35:12;43.85;;;17.30;;
42668;SDS011;29384;42.028;21.388;2022-11-12T07:37:37;27.20;;;16.48;;
42668;SDS011;29384;42.028;21.388;2022-11-12T07:40:03;26.33;;;16.15;;
42668;SDS011;29384;42.028;21.388;2022-11-12T07:42:32;24.23;;;16.58;;
42668;SDS011;29384;42.028;21.388;2022-11-12T07:48:20;18.35;;;11.65;;
42668;SDS011;29384;42.028;21.388;2022-11-12T07:50:45;19.70;;;11.35;;
42668;SDS011;29384;42.028;21.388;2022-11-12T07:53:11;16.67;;;10.52;;
42668;SDS011;29384;42.028;21.388;2022-11-12T07:55:39;17.05;;;11.57;;
42668;SDS011;29384;42.028;21.388;2022-11-12T07:58:04;18.95;;;11.40;;
42668;SDS011;29384;42.028;21.388;2022-11-12T08:00:30;17.33;;;11.63;;
42668;SDS011;29384;42.028;21.388;2022-11-12T08:02:57;19.30;;;11.95;;
42668;SDS011;29384;42.028;21.388;2022-11-12T08:05:24;20.23;;;12.98;;
42668;SDS011;29384;42.028;21.388;2022-11-12T08:07:50;20.27;;;12.45;;
42668;SDS011;29384;42.028;21.388;2022-11-12T08:10:15;19.63;;;11.95;;
42668;SDS011;29384;42.028;21.388;2022-11-12T08:12:41;15.13;;;10.63;;
42668;SDS011;29384;42.028;21.388;2022-11-12T08:18:28;14.02;;;8.05;;
42668;SDS011;29384;42.028;21.388;2022-11-12T08:21:02;9.32;;;8.18;;
42668;SDS011;29384;42.028;21.388;2022-11-12T08:23:29;5.55;;;5.10;;
42668;SDS011;29384;42.028;21.388;2022-11-12T08:25:57;9.57;;;5.57;;
42668;SDS011;29384;42.028;21.388;2022-11-12T08:28:24;8.35;;;5.13;;
42668;SDS011;29384;42.028;21.388;2022-11-12T08:30:49;5.10;;;4.70;;
42668;SDS011;29384;42.028;21.388;2022-11-12T08:33:15;5.60;;;4.97;;
42668;SDS011;29384;42.028;21.388;2022-11-12T08:35:40;4.60;;;4.30;;
42668;SDS011;29384;42.028;21.388;2022-11-12T08:38:06;6.43;;;4.25;;
42668;SDS011;29384;42.028;21.388;2022-11-12T08:40:33;5.53;;;5.00;;
42668;SDS011;29384;42.028;21.388;2022-11-12T08:42:59;4.32;;;4.03;;
42668;SDS011;29384;42.028;21.388;2022-11-12T08:45:26;3.83;;;3.45;;
42668;SDS011;29384;42.028;21.388;2022-11-12T08:47:57;4.88;;;4.47;;
42668;SDS011;29384;42.028;21.388;2022-11-12T08:50:26;2.85;;;2.72;;
42668;SDS011;29384;42.028;21.388;2022-11-12T08:52:52;4.82;;;3.17;;
42668;SDS011;29384;42.028;21.388;2022-11-12T08:55:17;2.58;;;2.38;;
42668;SDS011;29384;42.028;21.388;2022-11-12T08:57:43;2.83;;;2.65;;
42668;SDS011;29384;42.028;21.388;2022-11-12T09:03:30;2.95;;;2.65;;
42668;SDS011;29384;42.028;21.388;2022-11-12T09:05:56;2.63;;;2.40;;
42668;SDS011;29384;42.028;21.388;2022-11-12T09:08:22;3.35;;;3.15;;
42668;SDS011;29384;42.028;21.388;2022-11-12T09:10:52;8.52;;;5.03;;
42668;SDS011;29384;42.028;21.388;2022-11-12T09:13:18;5.35;;;3.10;;
42668;SDS011;29384;42.028;21.388;2022-11-12T09:15:47;3.45;;;3.15;;
42668;SDS011;29384;42.028;21.388;2022-11-12T09:18:13;3.75;;;3.05;;
42668;SDS011;29384;42.028;21.388;2022-11-12T09:20:44;4.57;;;3.95;;
42668;SDS011;29384;42.028;21.388;2022-11-12T09:23:11;4.88;;;4.15;;
42668;SDS011;29384;42.028;21.388;2022-11-12T09:25:39;2.80;;;2.60;;
42668;SDS011;29384;42.028;21.388;2022-11-12T09:34:48;2.58;;;1.95;;
42668;SDS011;29384;42.028;21.388;2022-11-12T09:37:14;2.75;;;1.70;;
42668;SDS011;29384;42.028;21.388;2022-11-12T09:39:39;1.73;;;1.63;;
42668;SDS011;29384;42.028;21.388;2022-11-12T09:42:10;1.65;;;1.55;;
42668;SDS011;29384;42.028;21.388;2022-11-12T09:44:39;2.28;;;1.83;;
42668;SDS011;29384;42.028;21.388;2022-11-12T09:47:15;1.92;;;1.83;;
42668;SDS011;29384;42.028;21.388;2022-11-12T09:49:56;1.55;;;1.45;;
42668;SDS011;29384;42.028;21.388;2022-11-12T09:55:37;3.40;;;1.85;;
42668;SDS011;29384;42.028;21.388;2022-11-12T09:57:52;2.22;;;2.13;;
42668;SDS011;29384;42.028;21.388;2022-11-12T10:00:19;1.98;;;1.60;;
42668;SDS011;29384;42.028;21.388;2022-11-12T10:02:58;1.85;;;1.80;;
42668;SDS011;29384;42.028;21.388;2022-11-12T10:05:34;2.58;;;2.38;;
42668;SDS011;29384;42.028;21.388;2022-11-12T10:08:10;2.15;;;1.90;;
42668;SDS011;29384;42.028;21.388;2022-11-12T10:11:03;2.83;;;2.63;;
42668;SDS011;29384;42.028;21.388;2022-11-12T10:25:17;1.92;;;1.80;;
42668;SDS011;29384;42.028;21.388;2022-11-12T10:27:44;1.63;;;1.52;;
42668;SDS011;29384;42.028;21.388;2022-11-12T10:33:31;2.00;;;1.65;;
42668;SDS011;29384;42.028;21.388;2022-11-12T10:36:39;1.92;;;1.77;;
42668;SDS011;29384;42.028;21.388;2022-11-12T10:38:53;2.45;;;1.55;;
42668;SDS011;29384;42.028;21.388;2022-11-12T10:41:29;2.35;;;2.15;;
42668;SDS011;29384;42.028;21.388;2022-11-12T10:43:57;2.53;;;1.83;;
42668;SDS011;29384;42.028;21.388;2022-11-12T10:46:29;2.20;;;2.10;;
42668;SDS011;29384;42.028;21.388;2022-11-12T10:49:00;1.95;;;1.85;;
42668;SDS011;29384;42.028;21.388;2022-11-12T10:51:32;1.30;;;1.30;;
42668;SDS011;29384;42.028;21.388;2022-11-12T10:54:17;2.95;;;1.73;;
42668;SDS011;29384;42.028;21.388;2022-11-12T10:57:01;3.70;;;1.92;;
42668;SDS011;29384;42.028;21.388;2022-11-12T10:59:44;1.92;;;1.83;;
42668;SDS011;29384;42.028;21.388;2022-11-12T11:02:16;2.00;;;1.90;;
42668;SDS011;29384;42.028;21.388;2022-11-12T11:04:43;1.35;;;1.35;;
42668;SDS011;29384;42.028;21.388;2022-11-12T11:07:15;2.67;;;2.13;;
42668;SDS011;29384;42.028;21.388;2022-11-12T11:10:21;1.40;;;1.30;;
42668;SDS011;29384;42.028;21.388;2022-11-12T11:12:47;3.85;;;1.92;;
42668;SDS011;29384;42.028;21.388;2022-11-12T11:15:22;2.97;;;1.88;;
42668;SDS011;29384;42.028;21.388;2022-11-12T11:17:47;2.28;;;2.05;;
42668;SDS011;29384;42.028;21.388;2022-11-12T11:23:19;1.58;;;1.48;;
42668;SDS011;29384;42.028;21.388;2022-11-12T11:25:50;1.63;;;1.52;;
42668;SDS011;29384;42.028;21.388;2022-11-12T11:35:10;2.40;;;2.20;;
42668;SDS011;29384;42.028;21.388;2022-11-12T11:37:12;2.83;;;2.63;;
42668;SDS011;29384;42.028;21.388;2022-11-12T11:58:03;2.28;;;2.17;;
42668;SDS011;29384;42.028;21.388;2022-11-12T12:04:12;1.38;;;1.35;;
42668;SDS011;29384;42.028;21.388;2022-11-12T12:07:10;1.75;;;1.42;;
42668;SDS011;29384;42.028;21.388;2022-11-12T12:21:33;2.20;;;2.00;;
42668;SDS011;29384;42.028;21.388;2022-11-12T12:24:22;2.38;;;2.20;;
42668;SDS011;29384;42.028;21.388;2022-11-12T12:26:53;2.55;;;2.40;;
42668;SDS011;29384;42.028;21.388;2022-11-12T12:29:27;4.32;;;2.55;;
42668;SDS011;29384;42.028;21.388;2022-11-12T12:31:59;4.55;;;2.78;;
42668;SDS011;29384;42.028;21.388;2022-11-12T12:34:32;4.25;;;3.85;;
42668;SDS011;29384;42.028;21.388;2022-11-12T12:37:04;4.40;;;3.42;;
42668;SDS011;29384;42.028;21.388;2022-11-12T12:39:46;11.90;;;5.32;;
42668;SDS011;29384;42.028;21.388;2022-11-12T12:42:29;4.35;;;3.97;;
42668;SDS011;29384;42.028;21.388;2022-11-12T12:48:27;3.38;;;2.22;;
42668;SDS011;29384;42.028;21.388;2022-11-12T12:50:54;4.47;;;3.35;;
42668;SDS011;29384;42.028;21.388;2022-11-12T12:55:52;8.38;;;4.40;;
42668;SDS011;29384;42.028;21.388;2022-11-12T12:58:26;4.43;;;3.42;;
42668;SDS011;29384;42.028;21.388;2022-11-12T13:00:58;3.30;;;3.08;;
42668;SDS011;29384;42.028;21.388;2022-11-12T13:03:45;6.03;;;4.22;;
42668;SDS011;29384;42.028;21.388;2022-11-12T13:09:19;4.35;;;3.47;;
42668;SDS011;29384;42.028;21.388;2022-11-12T13:11:51;20.60;;;11.52;;
42668;SDS011;29384;42.028;21.388;2022-11-12T13:17:51;8.98;;;6.82;;
42668;SDS011;29384;42.028;21.388;2022-11-12T13:20:30;9.32;;;6.75;;
42668;SDS011;29384;42.028;21.388;2022-11-12T13:22:58;6.40;;;5.28;;
42668;SDS011;29384;42.028;21.388;2022-11-12T13:25:25;10.10;;;5.85;;
42668;SDS011;29384;42.028;21.388;2022-11-12T13:33:48;8.68;;;5.03;;
42668;SDS011;29384;42.028;21.388;2022-11-12T13:36:22;9.30;;;6.25;;
42668;SDS011;29384;42.028;21.388;2022-11-12T13:38:51;9.07;;;5.63;;
42668;SDS011;29384;42.028;21.388;2022-11-12T13:41:18;4.32;;;3.92;;
42668;SDS011;29384;42.028;21.388;2022-11-12T13:44:06;5.72;;;3.42;;
42668;SDS011;29384;42.028;21.388;2022-11-12T13:46:38;16.33;;;5.35;;
42668;SDS011;29384;42.028;21.388;2022-11-12T13:49:04;6.47;;;5.43;;
42668;SDS011;29384;42.028;21.388;2022-11-12T13:51:41;8.63;;;4.57;;
42668;SDS011;29384;42.028;21.388;2022-11-12T14:03:22;5.90;;;4.75;;
42668;SDS011;29384;42.028;21.388;2022-11-12T14:05:50;6.00;;;4.25;;
42668;SDS011;29384;42.028;21.388;2022-11-12T14:13:54;7.60;;;5.25;;
42668;SDS011;29384;42.028;21.388;2022-11-12T14:20:28;13.02;;;7.30;;
42668;SDS011;29384;42.028;21.388;2022-11-12T14:23:16;19.20;;;9.38;;
42668;SDS011;29384;42.028;21.388;2022-11-12T14:25:50;33.58;;;15.98;;
42668;SDS011;29384;42.028;21.388;2022-11-12T14:28:30;28.65;;;13.63;;
42668;SDS011;29384;42.028;21.388;2022-11-12T14:30:58;22.67;;;12.00;;
42668;SDS011;29384;42.028;21.388;2022-11-12T14:33:25;21.77;;;11.30;;
42668;SDS011;29384;42.028;21.388;2022-11-12T14:35:52;25.00;;;11.50;;
42668;SDS011;29384;42.028;21.388;2022-11-12T14:38:25;20.77;;;9.70;;
42668;SDS011;29384;42.028;21.388;2022-11-12T14:41:00;19.30;;;9.80;;
42668;SDS011;29384;42.028;21.388;2022-11-12T14:43:37;34.92;;;12.93;;
42668;SDS011;29384;42.028;21.388;2022-11-12T14:46:07;24.10;;;12.85;;
42668;SDS011;29384;42.028;21.388;2022-11-12T14:48:47;44.20;;;21.77;;
42668;SDS011;29384;42.028;21.388;2022-11-12T14:51:18;58.67;;;27.33;;
42668;SDS011;29384;42.028;21.388;2022-11-12T14:53:52;81.15;;;34.70;;
42668;SDS011;29384;42.028;21.388;2022-11-12T14:56:54;52.83;;;23.83;;
42668;SDS011;29384;42.028;21.388;2022-11-12T15:02:34;30.00;;;15.45;;
42668;SDS011;29384;42.028;21.388;2022-11-12T15:05:00;30.67;;;9.27;;
42668;SDS011;29384;42.028;21.388;2022-11-12T15:07:54;18.88;;;8.27;;
42668;SDS011;29384;42.028;21.388;2022-11-12T15:12:59;24.42;;;13.30;;
42668;SDS011;29384;42.028;21.388;2022-11-12T15:21:53;40.78;;;19.58;;
42668;SDS011;29384;42.028;21.388;2022-11-12T15:24:25;30.13;;;15.38;;
42668;SDS011;29384;42.028;21.388;2022-11-12T15:27:01;20.23;;;8.88;;
42668;SDS011;29384;42.028;21.388;2022-11-12T15:30:18;12.90;;;7.32;;
42668;SDS011;29384;42.028;21.388;2022-11-12T15:35:39;17.00;;;7.47;;
42668;SDS011;29384;42.028;21.388;2022-11-12T15:38:19;15.55;;;8.27;;
42668;SDS011;29384;42.028;21.388;2022-11-12T15:40:53;18.83;;;7.95;;
42668;SDS011;29384;42.028;21.388;2022-11-12T15:43:22;11.73;;;7.75;;
42668;SDS011;29384;42.028;21.388;2022-11-12T15:45:51;16.70;;;7.07;;
42668;SDS011;29384;42.028;21.388;2022-11-12T15:48:18;16.08;;;6.05;;
42668;SDS011;29384;42.028;21.388;2022-11-12T15:50:44;5.63;;;3.70;;
42668;SDS011;29384;42.028;21.388;2022-11-12T15:53:11;5.88;;;4.95;;
42668;SDS011;29384;42.028;21.388;2022-11-12T15:55:37;5.60;;;4.80;;
42668;SDS011;29384;42.028;21.388;2022-11-12T15:58:04;7.10;;;4.50;;
42668;SDS011;29384;42.028;21.388;2022-11-12T16:00:32;7.28;;;5.03;;
42668;SDS011;29384;42.028;21.388;2022-11-12T16:05:35;12.90;;;6.90;;
42668;SDS011;29384;42.028;21.388;2022-11-12T16:08:00;19.38;;;7.93;;
42668;SDS011;29384;42.028;21.388;2022-11-12T16:10:26;26.10;;;10.23;;
42668;SDS011;29384;42.028;21.388;2022-11-12T16:12:51;15.88;;;10.57;;
42668;SDS011;29384;42.028;21.388;2022-11-12T16:15:23;30.35;;;14.70;;
42668;SDS011;29384;42.028;21.388;2022-11-12T16:17:50;24.65;;;15.18;;
42668;SDS011;29384;42.028;21.388;2022-11-12T16:20:18;34.45;;;16.77;;
42668;SDS011;29384;42.028;21.388;2022-11-12T16:22:46;42.97;;;19.73;;
42668;SDS011;29384;42.028;21.388;2022-11-12T16:25:12;38.08;;;22.58;;
42668;SDS011;29384;42.028;21.388;2022-11-12T16:27:38;45.63;;;22.63;;
42668;SDS011;29384;42.028;21.388;2022-11-12T16:32:40;28.05;;;15.82;;
42668;SDS011;29384;42.028;21.388;2022-11-12T16:35:06;13.80;;;9.35;;
42668;SDS011;29384;42.028;21.388;2022-11-12T16:37:32;13.35;;;7.57;;
42668;SDS011;29384;42.028;21.388;2022-11-12T16:39:57;9.35;;;7.25;;
42668;SDS011;29384;42.028;21.388;2022-11-12T16:42:23;9.93;;;6.68;;
42668;SDS011;29384;42.028;21.388;2022-11-12T16:44:48;26.45;;;15.40;;
42668;SDS011;29384;42.028;21.388;2022-11-12T16:47:14;26.30;;;14.85;;
42668;SDS011;29384;42.028;21.388;2022-11-12T16:49:39;24.63;;;13.82;;
42668;SDS011;29384;42.028;21.388;2022-11-12T16:52:07;31.80;;;17.23;;
42668;SDS011;29384;42.028;21.388;2022-11-12T16:54:34;32.88;;;15.55;;
42668;SDS011;29384;42.028;21.388;2022-11-12T16:56:59;39.65;;;20.35;;
42668;SDS011;29384;42.028;21.388;2022-11-12T16:59:25;37.20;;;18.40;;
42668;SDS011;29384;42.028;21.388;2022-11-12T17:05:16;41.78;;;19.05;;
42668;SDS011;29384;42.028;21.388;2022-11-12T17:07:47;43.83;;;17.20;;
42668;SDS011;29384;42.028;21.388;2022-11-12T17:10:13;38.08;;;18.92;;
42668;SDS011;29384;42.028;21.388;2022-11-12T17:12:39;36.47;;;18.10;;
42668;SDS011;29384;42.028;21.388;2022-11-12T17:15:05;35.03;;;19.92;;
42668;SDS011;29384;42.028;21.388;2022-11-12T17:17:31;34.63;;;19.55;;
42668;SDS011;29384;42.028;21.388;2022-11-12T17:19:56;35.85;;;17.75;;
42668;SDS011;29384;42.028;21.388;2022-11-12T17:22:22;39.13;;;15.20;;
42668;SDS011;29384;42.028;21.388;2022-11-12T17:24:48;21.08;;;12.25;;